Database: COMPET-N - COOP - 3PL - 4PL - CNDOOM

WAD: Doom | Doom 2 | TNT | Plutonia | AV | HR | Scythe | MM | MM2 | Requiem | CE
Category: speed | nmare | max | nm100s | tyson | pacifist | fast | respawn | nomo | misc | built | all
Highscore: ALL | IWAD | PWAD | Country | Continent

< Previous map       Next map >
Remove: wad | map | category | player | allE2M5
MapPlayerTimeDateFilenameCommentsDL
E2M5: Command CenterAdam Hegyi27.002001-07-02e2m5-027.zip - 314
E2M5: Command CenterMarijo Sedlić28.002000-06-06e2m5-028.zip - 190
E2M5: Command CenterAdam Hegyi29.001999-05-30e2m5-029.zip - 172
E2M5: Command CenterThomas Zajic30.001996-03-26e2m5-030.zip - 138
E2M5: Command CenterMichael Kren33.001996-02-21e2m5-033.zip - 131
E2M5: Command CenterThomas Zajic34.001995-12-26e2m5-034.zip - 143
E2M5: Command CenterEelco de Vries45.001995-06-28e2m5-045.zip - 177
E2M5: Command CenterJonathan Weeks46.001995-08-10e2m5-046.zip - 118
E2M5: Command CenterEelco de Vries47.001995-06-21e2m5-047.zip - 103
E2M5: Command CenterJonathan Matthies1:14.001994-12-07e2m5-114.zip - 206
E2M5: Command CenterRanjo Kahluff28.002002-12-29n2m5-028.zip - 441
E2M5: Command CenterJim Leonard29.002002-11-21n2m5-029.zip - 242
E2M5: Command CenterJonathan Rimmer30.002000-05-03n2m5-030.zip - 139
E2M5: Command CenterAdam Williamson31.002000-04-28n2m5-031.zip - 172
E2M5: Command CenterThomas Pilger33.001998-03-31n2m5-033.zip - 150
E2M5: Command CenterIlya Britvich36.001997-08-14n2m5-036.zip - 139
E2M5: Command CenterPeo Sjoblom37.001997-08-13n2m5-037.zip - 139
E2M5: Command CenterIlya Britvich40.001997-08-08n2m5-040.zip - 121
E2M5: Command CenterPeo Sjoblom41.001997-07-03n2m5-041.zip - 127
E2M5: Command CenterSimon Widlake5:09.001996-01-21e2m5-nm2.zip - 117
E2M5: Command CenterRadek Pecka4:35.002003-06-23e2m5-435.zip - 309
E2M5: Command CenterJim Leonard4:38.002003-05-26e2m5-438.zip - 211
E2M5: Command CenterRadek Pecka4:41.002002-09-25e2m5-441.zip - 176
E2M5: Command CenterJim Leonard4:43.002002-09-18e2m5-443.zip - 219
E2M5: Command CenterRadek Pecka4:47.002001-11-28e2m5-447.zip - 169
E2M5: Command CenterAnders Johnsen4:51.001999-01-11e2m5-451.zip - 133
E2M5: Command CenterKai-Uwe Humpert4:58.001998-01-24e2m5-458.zip - 130
E2M5: Command CenterYonatan Donner6:55.001997-02-07e2m5-655.zip - 97
E2M5: Command CenterWade Cayton7:03.001996-06-23e2m5-703.zip - 92
E2M5: Command CenterKai-Uwe Humpert8:05.001996-05-15e2m5-805.zip - 126
E2M5: Command CenterYonatan Donner9:58.001996-06-03e2m5-958.zip - 83
E2M5: Command CenterEelco de Vries13:05.001995-06-03e25-1305.zip - 80
E2M5: Command CenterEelco de Vries16:22.001995-05-11e25-1622.zip - 88
E2M5: Command CenterRadek Pecka1:53.002002-09-26n2s5-153.zip - 275
E2M5: Command CenterJim Leonard2:02.002002-09-22n2s5-202.zip - 211
E2M5: Command CenterRadek Pecka2:08.002002-02-23n2s5-208.zip - 182
E2M5: Command CenterChris Laverdure2:18.002002-02-06n2s5-218.zip - 162
E2M5: Command CenterChris Ratcliff2:32.002000-08-15n2s5-232.zip - 159
E2M5: Command CenterChris Ratcliff2:48.002000-08-04n2s5-248.zip - 169
E2M5: Command CenterRobert J. Reevy3:41.001999-08-04n2s5-341.zip - 113
E2M5: Command CenterSteffen Udluft5:04.001999-06-28n2s5-504.zip - 131
E2M5: Command CenterJim Leonard5:13.002003-05-24t2m5-513.zip - 282
E2M5: Command CenterAnders Johnsen5:15.002002-11-20t2m5-515.zip - 157
E2M5: Command CenterJim Leonard5:26.002002-05-27t2m5-526.zip - 206
E2M5: Command CenterRadek Pecka5:43.002002-02-25t2m5-543.zip - 144
E2M5: Command CenterJim Leonard6:27.002002-02-22t2m5-627.zip - 196
E2M5: Command CenterRadek Pecka6:48.002002-02-21t2m5-648.zip - 146
E2M5: Command CenterJim Leonard7:03.002002-02-18t2m5-703.zip - 201
E2M5: Command CenterRadek Pecka7:10.002001-11-28t2m5-710.zip - 139
E2M5: Command CenterAnders Johnsen7:53.001999-03-07t2m5-753.zip - 150
E2M5: Command CenterPatrick Martin14:34.001997-06-01t2m51434.zip - 105
E2M5: Command CenterAdam Hegyi27.002001-07-02e2m5-027.zip - 263
E2M5: Command CenterMarijo Sedlić28.002000-06-06e2m5-028.zip - 164
E2M5: Command CenterAdam Hegyi29.001999-05-30e2m5-029.zip - 181
E2M5: Command CenterJan Endre Jansen31.001999-05-08p2m5-031.zip - 119
E2M5: Command CenterMarko van der Want32.001999-04-29p2m5-032.zip - 144
E2M5: Command CenterMichael Kren33.001996-02-21e2m5-033.zip - 130
E2M5: Command CenterRadek Pecka5:37.002002-09-26f2m5-537.zip - 299
E2M5: Command CenterJim Leonard6:10.002002-09-22f2m5-610.zip - 227
E2M5: Command CenterRadek Pecka6:41.002001-09-17f2m5-641.zip - 158
E2M5: Command CenterAnders Johnsen7:06.001999-04-04f2m5-706.zip - 141
E2M5: Command CenterSteffen Udluft11:09.001999-03-22f2m51109.zip - 150
E2M5: Command CenterRadek Pecka3:47.002000-08-26r2m5-347.zip - 288
E2M5: Command CenterSteffen Udluft4:08.001999-08-09r2m5-408.zip - 127
E2M5: Command CenterRobert J. Reevy4:17.001999-08-05r2m5-417.zip - 119
E2M5: Command CenterSteffen Udluft8:39.001997-12-13r2m5-839.zip - 136
E2M5: Command CenterArno Slagboom31.742000-05-03u2503174.zip - 271
Remove: wad | map | category | player | all